createdAt,value
2019-04-20T00:00:52.945Z,15.60
2019-04-20T00:03:23.625Z,15.60
2019-04-20T00:05:55.175Z,15.60
2019-04-20T00:08:27.924Z,15.60
2019-04-20T00:11:02.616Z,15.60
2019-04-20T00:13:38.411Z,15.50
2019-04-20T00:16:00.066Z,15.50
2019-04-20T00:18:35.537Z,15.40
2019-04-20T00:21:19.691Z,15.40
2019-04-20T00:23:53.144Z,15.30
2019-04-20T00:27:01.931Z,15.20
2019-04-20T00:29:24.018Z,15.20
2019-04-20T00:31:50.427Z,15.10
2019-04-20T00:34:18.458Z,15.10
2019-04-20T00:36:43.362Z,15.00
2019-04-20T00:39:18.864Z,15.00
2019-04-20T00:41:55.345Z,15.00
2019-04-20T00:44:27.535Z,15.00
2019-04-20T00:47:04.494Z,15.00
2019-04-20T00:49:43.273Z,15.00
2019-04-20T00:52:48.079Z,14.90
2019-04-20T00:54:45.328Z,14.90
2019-04-20T00:57:31.962Z,14.90
2019-04-20T01:00:10.978Z,14.90
2019-04-20T01:02:34.896Z,14.90
2019-04-20T01:05:12.847Z,14.90
2019-04-20T01:07:50.446Z,14.90
2019-04-20T01:10:17.338Z,14.90
2019-04-20T01:12:53.935Z,14.90
2019-04-20T01:15:29.005Z,14.90
2019-04-20T01:17:49.217Z,14.90
2019-04-20T01:20:18.179Z,14.80
2019-04-20T01:22:56.086Z,14.80
2019-04-20T01:25:27.254Z,14.80
2019-04-20T01:28:07.773Z,14.70
2019-04-20T01:30:30.297Z,14.70
2019-04-20T01:33:10.726Z,14.60
2019-04-20T01:35:44.091Z,14.60
2019-04-20T01:38:16.391Z,14.60
2019-04-20T01:40:30.072Z,14.50
2019-04-20T01:43:01.540Z,14.40
2019-04-20T01:45:34.647Z,14.40
2019-04-20T01:48:02.858Z,14.40
2019-04-20T01:50:35.307Z,14.30
2019-04-20T01:53:12.499Z,14.30
2019-04-20T01:55:50.724Z,14.30
2019-04-20T01:58:39.655Z,14.20
2019-04-20T02:01:36.189Z,14.20
2019-04-20T02:04:20.369Z,14.20
2019-04-20T02:06:51.538Z,14.10
2019-04-20T02:09:22.224Z,14.10
2019-04-20T02:11:50.504Z,14.10
2019-04-20T02:14:31.983Z,14.10
2019-04-20T02:17:03.000Z,14.00
2019-04-20T02:19:34.675Z,14.00
2019-04-20T02:22:03.979Z,14.00
2019-04-20T02:24:24.243Z,14.00
2019-04-20T02:26:57.883Z,14.00
2019-04-20T02:30:07.504Z,14.00
2019-04-20T02:32:33.919Z,14.00
2019-04-20T02:35:09.393Z,14.00
2019-04-20T02:38:03.219Z,14.00
2019-04-20T02:45:49.005Z,13.80
2019-04-20T02:50:44.564Z,13.80
2019-04-20T02:53:09.905Z,13.70
2019-04-20T02:55:48.566Z,13.70
2019-04-20T03:00:43.250Z,13.70
2019-04-20T03:03:11.255Z,13.70
2019-04-20T03:05:39.446Z,13.70
2019-04-20T03:08:20.807Z,13.60
2019-04-20T03:10:54.988Z,13.70
2019-04-20T03:13:26.944Z,13.70
2019-04-20T03:15:51.974Z,13.70
2019-04-20T03:18:25.516Z,13.70
2019-04-20T03:21:00.709Z,13.70
2019-04-20T03:23:35.931Z,13.70
2019-04-20T03:26:06.429Z,13.70
2019-04-20T03:28:50.230Z,13.70
2019-04-20T03:34:22.732Z,13.70
2019-04-20T03:36:44.634Z,13.70
2019-04-20T03:39:04.216Z,13.70
2019-04-20T03:41:26.405Z,13.60
2019-04-20T03:43:54.153Z,13.60
2019-04-20T03:46:30.914Z,13.60
2019-04-20T03:49:16.959Z,13.50
2019-04-20T03:51:47.108Z,13.50
2019-04-20T03:54:32.158Z,13.50
2019-04-20T03:57:29.718Z,13.40
2019-04-20T04:00:00.700Z,13.40
2019-04-20T04:03:01.576Z,13.40
2019-04-20T04:05:27.868Z,13.30
2019-04-20T04:07:45.327Z,13.30
2019-04-20T04:10:27.239Z,13.20
2019-04-20T04:13:09.530Z,13.20
2019-04-20T04:16:04.274Z,13.20
2019-04-20T04:18:35.461Z,13.10
2019-04-20T04:21:05.233Z,13.10
2019-04-20T04:23:47.086Z,13.00
2019-04-20T04:26:18.683Z,13.00
2019-04-20T04:28:49.053Z,12.90
2019-04-20T04:31:28.204Z,12.90
2019-04-20T04:33:58.159Z,12.90
2019-04-20T04:36:29.004Z,12.80
2019-04-20T04:39:05.455Z,12.80
2019-04-20T04:41:32.311Z,12.70
2019-04-20T04:44:00.053Z,12.70
2019-04-20T04:46:14.630Z,12.70
2019-04-20T04:48:49.424Z,12.70
2019-04-20T04:51:22.723Z,12.60
2019-04-20T04:53:55.124Z,12.60
2019-04-20T04:56:21.996Z,12.60
2019-04-20T04:58:49.561Z,12.60
2019-04-20T05:01:24.884Z,12.60
2019-04-20T05:04:14.760Z,12.60
2019-04-20T05:06:34.410Z,12.50
2019-04-20T05:08:58.475Z,12.50
2019-04-20T05:11:25.858Z,12.60
2019-04-20T05:14:02.044Z,12.50
2019-04-20T05:16:46.406Z,12.60
2019-04-20T05:19:19.625Z,12.50
2019-04-20T05:24:43.885Z,12.50
2019-04-20T05:27:34.468Z,12.50
2019-04-20T05:29:45.112Z,12.50
2019-04-20T05:32:18.561Z,12.50
2019-04-20T05:35:12.202Z,12.50
2019-04-20T05:37:45.770Z,12.60
2019-04-20T05:40:10.484Z,12.60
2019-04-20T05:42:50.000Z,12.70
2019-04-20T05:45:15.460Z,12.80
2019-04-20T05:47:50.732Z,12.80
2019-04-20T05:50:23.240Z,12.90
2019-04-20T05:53:03.229Z,12.90
2019-04-20T05:55:34.503Z,13.00
2019-04-20T05:58:06.982Z,13.00
2019-04-20T06:00:33.542Z,13.10
2019-04-20T06:03:02.368Z,13.20
2019-04-20T06:05:38.869Z,13.20
2019-04-20T06:08:09.380Z,13.30
2019-04-20T06:10:43.654Z,13.30
2019-04-20T06:13:00.223Z,13.40
2019-04-20T06:15:51.344Z,13.50
2019-04-20T06:18:17.687Z,13.50
2019-04-20T06:20:52.551Z,13.60
2019-04-20T06:23:41.331Z,13.60
2019-04-20T06:26:22.724Z,13.60
2019-04-20T06:28:33.794Z,13.70
2019-04-20T06:30:55.946Z,13.70
2019-04-20T06:36:47.241Z,13.70
2019-04-20T06:42:07.101Z,13.90
2019-04-20T06:44:30.438Z,13.90
2019-04-20T06:47:15.500Z,14.00
2019-04-20T06:52:09.978Z,14.10
2019-04-20T06:54:48.646Z,14.20
2019-04-20T06:57:24.057Z,14.30
2019-04-20T06:59:53.513Z,14.30
2019-04-20T07:02:37.278Z,14.40
2019-04-20T07:05:09.562Z,14.50
2019-04-20T07:07:48.049Z,14.50
2019-04-20T07:10:18.247Z,14.60
2019-04-20T07:12:46.707Z,14.70
2019-04-20T07:15:18.984Z,14.70
2019-04-20T07:18:16.937Z,14.80
2019-04-20T07:20:42.753Z,14.90
2019-04-20T07:23:20.231Z,15.00
2019-04-20T07:25:42.239Z,15.10
2019-04-20T07:28:12.556Z,15.20
2019-04-20T07:30:46.406Z,15.20
2019-04-20T07:33:25.618Z,15.30
2019-04-20T07:35:52.451Z,15.50
2019-04-20T07:38:43.072Z,15.50
2019-04-20T07:41:08.751Z,15.60
2019-04-20T07:43:51.391Z,15.70
2019-04-20T07:46:23.229Z,15.80
2019-04-20T07:48:42.270Z,15.90
2019-04-20T07:51:08.145Z,16.00
2019-04-20T07:53:45.072Z,16.10
2019-04-20T07:56:27.011Z,16.20
2019-04-20T07:58:46.047Z,16.30
2019-04-20T08:02:09.559Z,16.40
2019-04-20T08:04:36.454Z,16.50
2019-04-20T08:06:58.222Z,16.60
2019-04-20T08:09:34.972Z,16.70
2019-04-20T08:12:25.619Z,16.80
2019-04-20T08:15:00.829Z,17.00
2019-04-20T08:17:31.441Z,17.10
2019-04-20T08:20:07.517Z,17.20
2019-04-20T08:22:42.099Z,17.30
2019-04-20T08:25:08.906Z,17.30
2019-04-20T08:27:46.996Z,17.40
2019-04-20T08:30:46.379Z,17.50
2019-04-20T08:33:28.078Z,17.60
2019-04-20T08:35:58.631Z,17.70
2019-04-20T08:40:53.956Z,17.90
2019-04-20T08:43:46.845Z,18.00
2019-04-20T08:46:13.594Z,18.10
2019-04-20T08:48:42.468Z,18.20
2019-04-20T08:51:17.224Z,18.30
2019-04-20T08:53:41.793Z,18.30
2019-04-20T08:56:08.354Z,18.50
2019-04-20T08:58:24.942Z,18.60
2019-04-20T09:00:58.759Z,18.70
2019-04-20T09:03:29.109Z,18.80
2019-04-20T09:06:04.630Z,18.90
2019-04-20T09:08:30.802Z,19.10
2019-04-20T09:11:16.782Z,19.20
2019-04-20T09:13:38.894Z,19.40
2019-04-20T09:16:00.028Z,19.60
2019-04-20T09:18:41.908Z,19.70
2019-04-20T09:21:13.640Z,19.90
2019-04-20T09:23:49.656Z,20.00
2019-04-20T09:26:23.240Z,20.20
2019-04-20T09:28:56.661Z,20.40
2019-04-20T09:31:43.550Z,20.50
2019-04-20T09:34:46.584Z,20.70
2019-04-20T09:37:41.660Z,20.80
2019-04-20T09:40:25.604Z,20.90
2019-04-20T09:43:00.393Z,21.10
2019-04-20T09:45:39.920Z,21.30
2019-04-20T09:48:15.771Z,21.40
2019-04-20T09:51:05.060Z,21.50
2019-04-20T09:53:29.944Z,21.60
2019-04-20T09:56:01.858Z,21.70
2019-04-20T09:58:33.736Z,21.90
2019-04-20T10:01:06.760Z,22.00
2019-04-20T10:03:25.151Z,22.10
2019-04-20T10:06:01.367Z,22.20
2019-04-20T10:08:34.056Z,22.30
2019-04-20T10:11:01.499Z,22.40
2019-04-20T10:13:32.145Z,22.60
2019-04-20T10:16:01.767Z,22.70
2019-04-20T10:18:39.361Z,22.80
2019-04-20T10:21:09.567Z,23.00
2019-04-20T10:23:38.728Z,23.10
2019-04-20T10:26:09.096Z,23.30
2019-04-20T10:28:39.401Z,23.40
2019-04-20T10:31:14.757Z,23.50
2019-04-20T10:33:44.068Z,23.70
2019-04-20T10:36:28.155Z,23.80
2019-04-20T10:38:58.429Z,23.80
2019-04-20T10:41:35.958Z,24.00
2019-04-20T10:43:58.753Z,24.20
2019-04-20T10:46:28.885Z,24.30
2019-04-20T10:49:02.815Z,24.40
2019-04-20T10:51:29.517Z,24.40
2019-04-20T10:53:58.596Z,24.60
2019-04-20T10:56:27.641Z,24.60
2019-04-20T10:58:59.695Z,24.80
2019-04-20T11:01:29.663Z,24.80
2019-04-20T11:03:58.821Z,24.80
2019-04-20T11:06:34.558Z,24.90
2019-04-20T11:09:04.841Z,24.90
2019-04-20T11:11:35.424Z,24.90
2019-04-20T11:14:09.241Z,25.10
2019-04-20T11:16:36.262Z,25.10
2019-04-20T11:19:05.560Z,25.20
2019-04-20T11:21:36.624Z,25.20
2019-04-20T11:24:08.497Z,25.40
2019-04-20T11:26:42.296Z,25.60
2019-04-20T11:29:11.524Z,25.50
2019-04-20T11:31:46.486Z,25.40
2019-04-20T11:34:14.866Z,25.50
2019-04-20T11:36:41.700Z,25.50
2019-04-20T11:39:14.595Z,25.60
2019-04-20T11:41:43.759Z,25.50
2019-04-20T11:44:13.792Z,25.60
2019-04-20T11:46:42.995Z,25.50
2019-04-20T11:49:13.212Z,25.60
2019-04-20T11:51:43.445Z,25.70
2019-04-20T11:54:12.625Z,25.80
2019-04-20T11:56:44.214Z,25.90
2019-04-20T11:59:12.917Z,26.00
2019-04-20T12:02:07.734Z,26.10
2019-04-20T12:04:48.267Z,26.10
2019-04-20T12:07:12.980Z,26.10
2019-04-20T12:09:41.945Z,26.10
2019-04-20T12:12:22.339Z,26.20
2019-04-20T12:14:42.840Z,26.30
2019-04-20T12:17:13.584Z,26.30
2019-04-20T12:19:43.914Z,26.30
2019-04-20T12:22:13.874Z,26.30
2019-04-20T12:24:44.453Z,26.30
2019-04-20T12:27:14.620Z,26.40
2019-04-20T12:29:43.694Z,26.40
2019-04-20T12:32:12.766Z,26.40
2019-04-20T12:34:41.747Z,26.40
2019-04-20T12:37:11.214Z,26.40
2019-04-20T12:39:40.123Z,26.40
2019-04-20T12:42:09.599Z,26.40
2019-04-20T12:44:39.647Z,26.30
2019-04-20T12:47:09.903Z,26.20
2019-04-20T12:49:39.162Z,26.20
2019-04-20T12:52:08.460Z,26.10
2019-04-20T12:54:39.988Z,26.00
2019-04-20T12:57:08.908Z,26.20
2019-04-20T12:59:39.184Z,26.20
2019-04-20T13:02:09.229Z,26.20
2019-04-20T13:04:39.370Z,26.30
2019-04-20T13:07:09.746Z,26.20
2019-04-20T13:09:46.464Z,26.40
2019-04-20T13:12:34.368Z,26.40
2019-04-20T13:15:26.562Z,26.50
2019-04-20T13:29:35.544Z,26.10
2019-04-20T14:04:34.744Z,25.80
2019-04-20T14:04:41.068Z,25.90
2019-04-20T14:05:32.721Z,25.80
2019-04-20T14:08:05.241Z,25.80
2019-04-20T14:10:35.175Z,25.90
2019-04-20T14:13:13.058Z,26.00
2019-04-20T14:15:37.308Z,26.00
2019-04-20T14:18:06.971Z,26.00
2019-04-20T14:20:36.250Z,26.10
2019-04-20T14:23:05.383Z,26.20
2019-04-20T14:25:34.509Z,26.30
2019-04-20T14:28:03.379Z,26.30
2019-04-20T14:30:33.073Z,26.20
2019-04-20T14:33:02.987Z,26.30
2019-04-20T14:35:32.653Z,26.40
2019-04-20T14:38:01.737Z,26.50
2019-04-20T14:40:30.852Z,26.50
2019-04-20T14:43:00.430Z,26.50
2019-04-20T14:45:30.336Z,26.50
2019-04-20T14:47:59.596Z,26.50
2019-04-20T14:50:29.843Z,26.40
2019-04-20T14:52:59.787Z,26.40
2019-04-20T14:55:29.264Z,26.40
2019-04-20T14:58:01.614Z,26.40
2019-04-20T15:00:51.312Z,26.40
2019-04-20T15:03:30.349Z,26.40
2019-04-20T15:06:00.369Z,26.40
2019-04-20T15:08:30.414Z,26.40
2019-04-20T15:11:00.909Z,26.40
2019-04-20T15:13:30.821Z,26.40
2019-04-20T15:15:59.830Z,26.50
2019-04-20T15:18:33.585Z,26.60
2019-04-20T15:21:04.041Z,26.70
2019-04-20T15:23:33.207Z,26.80
2019-04-20T15:26:02.496Z,26.90
2019-04-20T15:28:32.358Z,26.80
2019-04-20T15:31:02.557Z,26.70
2019-04-20T15:33:32.746Z,26.60
2019-04-20T15:36:04.501Z,26.60
2019-04-20T15:38:35.470Z,26.60
2019-04-20T15:41:05.317Z,26.70
2019-04-20T15:43:35.342Z,26.80
2019-04-20T15:46:05.467Z,26.90
2019-04-20T15:48:34.543Z,27.00
2019-04-20T15:51:03.776Z,27.10
2019-04-20T15:53:33.527Z,27.20
2019-04-20T15:56:05.018Z,27.30
2019-04-20T15:58:34.537Z,27.30
2019-04-20T16:01:06.246Z,27.30
2019-04-20T16:03:43.707Z,27.40
2019-04-20T16:06:13.583Z,27.40
2019-04-20T16:08:46.362Z,27.30
2019-04-20T16:11:15.607Z,27.30
2019-04-20T16:13:49.443Z,27.20
2019-04-20T16:16:16.185Z,27.10
2019-04-20T16:18:50.684Z,27.20
2019-04-20T16:21:22.992Z,27.10
2019-04-20T16:23:56.920Z,27.00
2019-04-20T16:26:33.891Z,27.00
2019-04-20T16:29:03.834Z,27.10
2019-04-20T16:31:32.923Z,27.00
2019-04-20T16:34:03.215Z,27.10
2019-04-20T16:36:32.532Z,27.20
2019-04-20T16:39:01.915Z,27.00
2019-04-20T16:41:32.639Z,26.90
2019-04-20T16:44:02.896Z,26.70
2019-04-20T16:46:32.122Z,26.60
2019-04-20T16:49:01.201Z,26.50
2019-04-20T16:51:31.067Z,26.70
2019-04-20T16:54:00.049Z,26.70
2019-04-20T16:56:28.837Z,26.80
2019-04-20T16:59:01.407Z,26.70
2019-04-20T17:01:28.199Z,26.60
2019-04-20T17:04:03.888Z,26.60
2019-04-20T17:06:29.797Z,26.60
2019-04-20T17:08:58.823Z,26.40
2019-04-20T17:11:31.834Z,26.20
2019-04-20T17:14:02.147Z,26.10
2019-04-20T17:16:31.966Z,25.90
2019-04-20T17:19:04.194Z,25.70
2019-04-20T17:21:35.552Z,25.70
2019-04-20T17:24:05.304Z,25.70
2019-04-20T17:26:43.528Z,25.70
2019-04-20T17:29:35.830Z,25.60
2019-04-20T17:32:15.854Z,25.30
2019-04-20T17:35:01.983Z,25.00
2019-04-20T17:37:36.103Z,24.80
2019-04-20T17:40:23.841Z,24.70
2019-04-20T17:42:47.292Z,24.60
2019-04-20T17:45:19.634Z,24.50
2019-04-20T17:47:57.899Z,24.30
2019-04-20T17:50:31.863Z,24.30
2019-04-20T18:23:41.011Z,23.00
2019-04-20T18:26:30.589Z,22.80
2019-04-20T18:28:59.201Z,22.60
2019-04-20T18:31:35.969Z,22.50
2019-04-20T18:34:14.515Z,22.30
2019-04-20T18:36:44.122Z,22.20
2019-04-20T18:39:13.653Z,22.10
2019-04-20T18:41:48.040Z,22.00
2019-04-20T18:44:14.809Z,21.90
2019-04-20T18:47:06.967Z,21.80
2019-04-20T18:49:32.243Z,21.70
2019-04-20T18:51:48.006Z,21.70
2019-04-20T18:54:23.513Z,21.60
2019-04-20T18:56:50.906Z,21.50
2019-04-20T18:59:19.118Z,21.40
2019-04-20T19:01:48.806Z,21.30
2019-04-20T19:04:19.710Z,21.20
2019-04-20T19:06:50.046Z,21.10
2019-04-20T19:09:26.167Z,21.00
2019-04-20T19:11:57.192Z,20.90
2019-04-20T19:14:50.935Z,20.80
2019-04-20T19:18:04.299Z,20.70
2019-04-20T19:20:30.739Z,20.60
2019-04-20T19:23:00.109Z,20.60
2019-04-20T19:25:33.102Z,20.50
2019-04-20T19:28:01.462Z,20.40
2019-04-20T19:30:37.296Z,20.30
2019-04-20T19:33:18.752Z,20.20
2019-04-20T19:35:42.101Z,20.20
2019-04-20T19:38:10.427Z,20.10
2019-04-20T19:40:46.747Z,20.10
2019-04-20T19:43:15.565Z,20.00
2019-04-20T19:46:07.286Z,19.90
2019-04-20T19:48:22.474Z,19.90
2019-04-20T19:51:08.449Z,19.80
2019-04-20T19:53:36.514Z,19.80
2019-04-20T19:55:58.854Z,19.70
2019-04-20T19:58:30.354Z,19.60
2019-04-20T20:00:51.755Z,19.50
2019-04-20T20:03:19.837Z,19.40
2019-04-20T20:05:51.834Z,19.30
2019-04-20T20:08:23.834Z,19.20
2019-04-20T20:10:50.728Z,19.20
2019-04-20T20:13:20.426Z,19.10
2019-04-20T20:15:59.919Z,19.00
2019-04-20T20:18:35.360Z,19.00
2019-04-20T20:21:06.094Z,18.90
2019-04-20T20:23:20.869Z,18.90
2019-04-20T20:25:51.398Z,18.80
2019-04-20T20:28:30.702Z,18.80
2019-04-20T20:31:03.450Z,18.70
2019-04-20T20:33:39.577Z,18.60
2019-04-20T20:36:02.219Z,18.50
2019-04-20T20:38:31.287Z,18.50
2019-04-20T20:41:05.701Z,18.40
2019-04-20T20:43:43.513Z,18.30
2019-04-20T20:46:06.090Z,18.20
2019-04-20T20:48:38.808Z,18.20
2019-04-20T20:51:10.425Z,18.10
2019-04-20T20:53:41.718Z,18.00
2019-04-20T20:56:06.106Z,18.00
2019-04-20T20:58:43.284Z,17.90
2019-04-20T21:01:08.941Z,17.70
2019-04-20T21:03:34.634Z,17.70
2019-04-20T21:05:59.928Z,17.60
2019-04-20T21:08:36.198Z,17.60
2019-04-20T21:11:04.834Z,17.50
2019-04-20T21:13:39.343Z,17.50
2019-04-20T21:16:12.924Z,17.40
2019-04-20T21:18:50.464Z,17.40
2019-04-20T21:21:17.907Z,17.30
2019-04-20T21:23:45.519Z,17.30
2019-04-20T21:26:12.777Z,17.30
2019-04-20T21:28:40.062Z,17.30
2019-04-20T21:31:15.966Z,17.20
2019-04-20T21:33:40.594Z,17.20
2019-04-20T21:36:14.581Z,17.20
2019-04-20T21:38:42.786Z,17.20
2019-04-20T21:41:16.200Z,17.20
2019-04-20T21:43:44.587Z,17.10
2019-04-20T21:46:14.208Z,17.10
2019-04-20T21:48:55.945Z,17.10
2019-04-20T21:51:29.339Z,17.00
2019-04-20T21:53:44.498Z,17.00
2019-04-20T21:56:13.478Z,16.90
2019-04-20T21:58:49.423Z,16.80
2019-04-20T22:01:24.254Z,16.80
2019-04-20T22:03:44.769Z,16.80
2019-04-20T22:06:14.114Z,16.70
2019-04-20T22:08:49.771Z,16.70
2019-04-20T22:11:17.874Z,16.70
2019-04-20T22:13:49.335Z,16.60
2019-04-20T22:16:20.055Z,16.50
2019-04-20T22:18:58.229Z,16.50
2019-04-20T22:21:26.515Z,16.50
2019-04-20T22:24:05.698Z,16.50
2019-04-20T22:26:27.704Z,16.50
2019-04-20T22:28:52.044Z,16.40
2019-04-20T22:31:22.137Z,16.40
2019-04-20T22:33:54.388Z,16.30
2019-04-20T22:36:27.384Z,16.30
2019-04-20T22:39:13.832Z,16.20
2019-04-20T22:41:56.504Z,16.20
2019-04-20T22:44:26.296Z,16.10
2019-04-20T22:46:54.275Z,16.00
2019-04-20T22:49:41.813Z,15.90
2019-04-20T22:52:04.106Z,15.90
2019-04-20T22:54:39.687Z,15.80
2019-04-20T22:57:03.331Z,15.70
2019-04-20T22:59:37.415Z,15.70
2019-04-20T23:02:00.006Z,15.60
2019-04-20T23:04:26.687Z,15.50
2019-04-20T23:06:57.152Z,15.50
2019-04-20T23:09:26.787Z,15.40
2019-04-20T23:12:04.899Z,15.30
2019-04-20T23:14:26.602Z,15.20
2019-04-20T23:16:57.469Z,15.20
2019-04-20T23:19:35.713Z,15.10
2019-04-20T23:22:01.276Z,15.00
2019-04-20T23:24:29.170Z,15.00
2019-04-20T23:26:59.339Z,15.00
2019-04-20T23:29:32.659Z,15.00
2019-04-20T23:32:02.982Z,14.90
2019-04-20T23:34:33.901Z,14.80
2019-04-20T23:37:03.037Z,14.80
2019-04-20T23:39:37.372Z,14.70
2019-04-20T23:42:07.468Z,14.70
2019-04-20T23:44:40.032Z,14.60
2019-04-20T23:47:19.853Z,14.60
2019-04-20T23:50:05.664Z,14.50
2019-04-20T23:52:44.387Z,14.50
2019-04-20T23:54:59.070Z,14.40
2019-04-20T23:57:23.810Z,14.40
2019-04-20T23:59:53.769Z,14.40
